Time;durP1;ratioP1;P1;durP2;ratioP2;P2;SDS_P1;SDS_P2;PMS_P1;PMS_P2;Temp;Humidity;BMP_temperature;BMP_pressure;BME280_temperature;BME280_humidity;BME280_pressure;Samples;Min_cycle;Max_cycle;Signal;HPM_P1;HPM_P2
2024/03/15 00:00:53;;;;;;;13.07;5.80;;;;;;;12.62;100.00;100655.94;6084652;19;20006;-77
2024/03/15 00:02:58;;;;;;;11.43;6.15;;;;;;;12.65;100.00;100658.41;6084957;19;20007;-75
2024/03/15 00:05:09;;;;;;;10.15;6.15;;;;;;;12.69;100.00;100662.59;6086093;19;20021;-75
2024/03/15 00:07:15;;;;;;;9.88;5.38;;;;;;;12.72;100.00;100664.22;6086842;19;20021;-77
2024/03/15 00:09:20;;;;;;;10.93;6.00;;;;;;;12.74;100.00;100659.72;6086325;19;20090;-73
2024/03/15 00:11:26;;;;;;;10.73;6.53;;;;;;;12.80;100.00;100654.13;6086701;19;20720;-76
2024/03/15 00:13:31;;;;;;;10.25;6.03;;;;;;;12.78;100.00;100666.53;6090300;19;20251;-75
2024/03/15 00:15:37;;;;;;;13.40;6.68;;;;;;;12.78;100.00;100661.25;6086519;19;20601;-74
2024/03/15 00:17:42;;;;;;;13.60;5.63;;;;;;;12.78;100.00;100663.91;6087927;19;20396;-74
2024/03/15 00:19:47;;;;;;;11.18;5.53;;;;;;;12.84;100.00;100662.72;6085993;19;20031;-73
2024/03/15 00:21:58;;;;;;;11.32;6.18;;;;;;;12.82;100.00;100659.31;6087650;19;20364;-74
2024/03/15 00:24:04;;;;;;;12.48;5.55;;;;;;;12.82;100.00;100656.66;6087921;19;20030;-76
2024/03/15 00:26:09;;;;;;;11.43;6.05;;;;;;;12.80;100.00;100661.19;6090159;19;20262;-77
2024/03/15 00:28:14;;;;;;;9.77;5.63;;;;;;;12.82;100.00;100656.66;6088468;19;20350;-77
2024/03/15 00:30:20;;;;;;;9.43;5.45;;;;;;;12.78;100.00;100650.72;6090647;19;20018;-75
2024/03/15 00:32:28;;;;;;;10.43;5.70;;;;;;;12.80;100.00;100653.28;6089645;19;20050;-76
2024/03/15 00:34:33;;;;;;;10.52;4.85;;;;;;;12.79;100.00;100660.31;6089738;19;20032;-76
2024/03/15 00:36:38;;;;;;;9.25;5.47;;;;;;;12.76;100.00;100668.41;6089772;19;20078;-75
2024/03/15 00:38:46;;;;;;;10.05;5.40;;;;;;;12.87;100.00;100654.66;6086554;19;20384;-75
2024/03/15 00:40:51;;;;;;;10.52;5.03;;;;;;;12.83;100.00;100651.31;6088370;19;20121;-75
2024/03/15 00:42:58;;;;;;;9.38;5.43;;;;;;;12.82;100.00;100654.91;6087817;19;20118;-74
2024/03/15 00:45:03;;;;;;;11.10;5.00;;;;;;;12.83;100.00;100653.97;6088531;19;20038;-74
2024/03/15 00:47:09;;;;;;;8.93;5.15;;;;;;;12.86;100.00;100647.69;6087181;19;20086;-74
2024/03/15 00:49:14;;;;;;;9.68;4.85;;;;;;;12.90;100.00;100651.84;6086265;19;20424;-74
2024/03/15 00:51:25;;;;;;;10.77;5.45;;;;;;;12.90;100.00;100654.47;6084774;19;20006;-74
2024/03/15 00:53:31;;;;;;;9.38;5.03;;;;;;;12.93;100.00;100644.63;6084027;19;20018;-74
2024/03/15 00:55:38;;;;;;;7.22;4.72;;;;;;;13.01;100.00;100641.59;6085144;19;20086;-74
2024/03/15 00:57:43;;;;;;;11.77;5.00;;;;;;;13.03;100.00;100644.97;6085565;19;20006;-76
2024/03/15 00:59:48;;;;;;;12.93;5.55;;;;;;;13.04;100.00;100641.41;6085791;19;20074;-77
2024/03/15 01:01:50;;;;;;;8.85;5.18;;;;;;;13.02;100.00;100642.44;6088175;19;20014;-75
2024/03/15 01:03:58;;;;;;;11.85;5.63;;;;;;;13.03;100.00;100639.69;6089707;19;20018;-77
2024/03/15 01:06:03;;;;;;;10.40;5.50;;;;;;;13.03;100.00;100639.69;6093037;19;20014;-78
2024/03/15 01:08:09;;;;;;;9.52;5.35;;;;;;;12.99;100.00;100638.19;6092215;19;20376;-77
2024/03/15 01:10:14;;;;;;;9.27;5.22;;;;;;;13.01;100.00;100641.59;6091183;19;21007;-78
2024/03/15 01:12:24;;;;;;;9.18;5.10;;;;;;;12.96;100.00;100639.19;6090785;19;20043;-76
2024/03/15 01:14:30;;;;;;;10.55;5.50;;;;;;;13.00;100.00;100633.75;6090357;19;20116;-75
2024/03/15 01:16:36;;;;;;;9.07;4.93;;;;;;;12.91;100.00;100641.22;6085219;19;20010;-75
2024/03/15 01:18:38;;;;;;;11.57;4.75;;;;;;;12.89;100.00;100647.50;6089795;19;20015;-76
2024/03/15 01:20:43;;;;;;;;;;;;;;;12.88;100.00;100645.81;6092603;19;20632;-75
2024/03/15 01:22:48;;;;;;;10.40;5.55;;;;;;;12.81;100.00;100640.00;6090136;19;19926;-74
2024/03/15 01:24:53;;;;;;;13.10;5.95;;;;;;;12.81;100.00;100639.16;6088765;19;20467;-75
2024/03/15 01:26:59;;;;;;;12.35;5.63;;;;;;;12.84;100.00;100644.25;6092109;19;21005;-76
2024/03/15 01:29:07;;;;;;;9.30;5.38;;;;;;;12.84;100.00;100639.00;6089380;19;20017;-74
2024/03/15 01:31:14;;;;;;;10.13;5.07;;;;;;;12.76;100.00;100635.91;6091777;19;20015;-76
2024/03/15 01:33:21;;;;;;;10.48;5.57;;;;;;;12.73;100.00;100637.78;6090436;19;20010;-75
2024/03/15 01:35:32;;;;;;;9.88;5.63;;;;;;;12.65;100.00;100647.03;6092849;19;20011;-76
2024/03/15 01:37:40;;;;;;;9.48;4.93;;;;;;;12.59;100.00;100644.72;6090089;19;20592;-76
2024/03/15 01:39:47;;;;;;;13.70;6.00;;;;;;;12.53;100.00;100645.84;6089613;19;20094;-75
2024/03/15 01:41:50;;;;;;;7.78;5.00;;;;;;;12.50;100.00;100649.50;6090887;19;20010;-74
2024/03/15 01:43:59;;;;;;;11.68;5.03;;;;;;;12.44;100.00;100646.34;6090767;19;20042;-75
2024/03/15 01:46:08;;;;;;;12.68;5.78;;;;;;;12.42;100.00;100642.94;6090377;19;20020;-74
2024/03/15 01:48:14;;;;;;;9.45;5.07;;;;;;;12.41;100.00;100644.72;6089042;19;20569;-75
2024/03/15 01:50:17;;;;;;;9.15;5.43;;;;;;;12.36;100.00;100646.75;6090446;19;20010;-75
2024/03/15 01:52:24;;;;;;;;;;;;;;;12.33;100.00;100640.78;6088409;19;20011;-75
2024/03/15 01:54:29;;;;;;;9.90;5.75;;;;;;;12.29;100.00;100646.19;6089724;19;19927;-75
2024/03/15 01:56:34;;;;;;;11.48;5.32;;;;;;;12.25;100.00;100646.44;6088674;19;20010;-74
2024/03/15 01:58:37;;;;;;;14.93;5.68;;;;;;;12.25;100.00;100634.13;6090812;19;20002;-76
2024/03/15 02:00:42;;;;;;;12.63;5.88;;;;;;;12.12;100.00;100637.44;6084497;19;20507;-76
2024/03/15 02:02:50;;;;;;;11.48;5.78;;;;;;;12.08;100.00;100636.72;6089311;19;20003;-76
2024/03/15 02:04:57;;;;;;;10.98;5.45;;;;;;;12.10;100.00;100634.88;6088215;19;20014;-77
2024/03/15 02:07:02;;;;;;;10.90;5.45;;;;;;;12.05;100.00;100634.25;6089514;19;20034;-78
2024/03/15 02:09:07;;;;;;;13.23;5.75;;;;;;;11.99;100.00;100643.31;6088685;19;20162;-78
2024/03/15 02:11:13;;;;;;;12.80;6.25;;;;;;;11.99;100.00;100638.06;6089354;19;20011;-76
2024/03/15 02:13:18;;;;;;;10.93;6.32;;;;;;;11.91;100.00;100642.00;6087346;19;20704;-76
2024/03/15 02:15:23;;;;;;;13.48;6.20;;;;;;;11.93;100.00;100637.50;6085698;19;20478;-75
2024/03/15 02:17:29;;;;;;;13.30;6.93;;;;;;;11.92;100.00;100644.53;6088630;19;20711;-76
2024/03/15 02:19:34;;;;;;;11.60;6.22;;;;;;;11.93;100.00;100645.38;6088183;19;20022;-75
2024/03/15 02:21:41;;;;;;;15.18;6.70;;;;;;;11.91;100.00;100645.47;6089208;19;20014;-76
2024/03/15 02:23:48;;;;;;;11.65;5.93;;;;;;;11.88;100.00;100636.88;6088562;19;20446;-76
2024/03/15 02:25:53;;;;;;;13.70;6.63;;;;;;;11.88;100.00;100640.38;6087865;19;20011;-75
2024/03/15 02:27:58;;;;;;;12.35;5.43;;;;;;;11.84;100.00;100644.88;6090495;19;20021;-75
2024/03/15 02:30:05;;;;;;;12.70;7.03;;;;;;;11.86;100.00;100637.78;6088212;19;20025;-75
2024/03/15 02:32:11;;;;;;;10.60;5.75;;;;;;;11.86;100.00;100644.84;6089310;19;20454;-78
2024/03/15 02:34:14;;;;;;;14.13;6.10;;;;;;;11.85;100.00;100637.88;6089196;19;20006;-77
2024/03/15 02:36:23;;;;;;;12.27;5.70;;;;;;;11.91;100.00;100642.00;6089377;19;20507;-76
2024/03/15 02:38:33;;;;;;;11.65;5.68;;;;;;;11.90;100.00;100633.25;6090214;19;19999;-76
2024/03/15 02:40:38;;;;;;;11.90;5.63;;;;;;;11.88;100.00;100632.47;6088270;19;20002;-75
2024/03/15 02:42:46;;;;;;;10.65;5.65;;;;;;;11.85;100.00;100632.59;6089667;19;20038;-75
2024/03/15 02:44:51;;;;;;;10.77;5.80;;;;;;;11.85;100.00;100638.72;6089739;19;20013;-77
2024/03/15 02:46:56;;;;;;;9.80;5.40;;;;;;;11.83;100.00;100637.91;6087978;19;20007;-75
2024/03/15 02:49:03;;;;;;;10.15;5.60;;;;;;;11.83;100.00;100644.97;6087846;19;20034;-75
2024/03/15 02:51:08;;;;;;;9.43;5.10;;;;;;;11.86;100.00;100639.59;6087811;19;20020;-74
2024/03/15 02:53:14;;;;;;;10.48;5.07;;;;;;;11.89;100.00;100638.59;6084320;19;20073;-80
2024/03/15 02:55:22;;;;;;;7.88;5.13;;;;;;;11.88;100.00;100639.53;6089829;19;20018;-80
2024/03/15 02:57:27;;;;;;;13.40;5.28;;;;;;;11.93;100.00;100632.22;6086690;19;20018;-78
2024/03/15 02:59:34;;;;;;;11.15;5.32;;;;;;;11.92;100.00;100634.00;6088064;19;20023;-78
2024/03/15 03:01:39;;;;;;;10.80;5.75;;;;;;;11.92;100.00;100635.78;6086234;19;20013;-74
2024/03/15 03:03:44;;;;;;;9.25;5.30;;;;;;;11.96;100.00;100637.38;6085293;19;20011;-74
2024/03/15 03:05:47;;;;;;;11.10;6.10;;;;;;;11.94;100.00;100631.31;6086702;19;20418;-74
2024/03/15 03:07:52;;;;;;;10.70;5.55;;;;;;;11.88;100.00;100639.53;6085903;19;20033;-74
2024/03/15 03:09:57;;;;;;;11.55;6.78;;;;;;;11.88;100.00;100642.16;6086811;19;20484;-74
2024/03/15 03:12:06;;;;;;;10.60;5.50;;;;;;;11.92;100.00;100636.63;6080454;19;21192;-74
2024/03/15 03:14:12;;;;;;;10.45;6.43;;;;;;;11.93;100.00;100634.84;6085692;19;20011;-73
2024/03/15 03:16:21;;;;;;;9.30;5.30;;;;;;;11.92;100.00;100634.00;6085213;19;20132;-73
2024/03/15 03:18:25;;;;;;;10.50;5.80;;;;;;;11.97;100.00;100639.91;6084063;19;20659;-75
2024/03/15 03:20:32;;;;;;;13.85;6.10;;;;;;;11.93;100.00;100630.47;6086077;19;20011;-72
2024/03/15 03:22:39;;;;;;;8.25;5.07;;;;;;;11.93;100.00;100638.38;6087187;19;20011;-77
2024/03/15 03:24:44;;;;;;;10.32;5.50;;;;;;;11.99;100.00;100639.84;6086361;19;20042;-76
2024/03/15 03:26:50;;;;;;;10.88;5.32;;;;;;;12.04;100.00;100633.41;6086279;19;20087;-75
2024/03/15 03:29:00;;;;;;;9.30;4.88;;;;;;;12.02;100.00;100635.25;6085828;19;20005;-73
2024/03/15 03:31:05;;;;;;;13.02;6.10;;;;;;;12.02;100.00;100639.69;6086962;19;20034;-74
2024/03/15 03:33:10;;;;;;;10.90;4.95;;;;;;;11.97;100.00;100641.69;6084557;19;20039;-74
2024/03/15 03:35:15;;;;;;;11.30;5.00;;;;;;;11.97;100.00;100639.06;6083324;19;20078;-73
2024/03/15 03:37:20;;;;;;;10.43;5.93;;;;;;;12.00;100.00;100636.25;6083167;19;20038;-76
2024/03/15 03:39:28;;;;;;;13.50;5.60;;;;;;;11.93;100.00;100642.75;6086592;19;20030;-74
2024/03/15 03:41:33;;;;;;;13.52;6.35;;;;;;;11.98;100.00;100632.84;6086640;19;20010;-73
2024/03/15 03:43:39;;;;;;;12.38;5.10;;;;;;;11.96;100.00;100640.84;6085130;19;20016;-73
2024/03/15 03:45:47;;;;;;;9.07;5.20;;;;;;;11.90;100.00;100635.00;6084290;19;20023;-74
2024/03/15 03:47:50;;;;;;;9.23;5.00;;;;;;;11.90;100.00;100640.28;6085471;19;20010;-74
2024/03/15 03:49:55;;;;;;;13.23;5.68;;;;;;;11.88;100.00;100642.16;6082774;19;20003;-74
2024/03/15 03:51:58;;;;;;;9.77;5.45;;;;;;;11.91;100.00;100642.84;6085743;19;20007;-74
2024/03/15 03:54:03;;;;;;;11.00;5.50;;;;;;;11.92;100.00;100634.00;6079460;19;20390;-74
2024/03/15 03:56:08;;;;;;;11.18;5.13;;;;;;;11.91;100.00;100639.38;6083889;19;20090;-78
2024/03/15 03:58:15;;;;;;;10.20;4.93;;;;;;;11.92;100.00;100633.16;6089242;19;20097;-77
2024/03/15 04:00:20;;;;;;;10.73;6.13;;;;;;;11.96;100.00;100637.38;6087507;19;20006;-80
2024/03/15 04:02:31;;;;;;;11.60;4.90;;;;;;;11.97;100.00;100636.41;6085429;19;20034;-78
2024/03/15 04:04:36;;;;;;;8.48;5.18;;;;;;;11.96;100.00;100642.63;6085294;19;20009;-73
2024/03/15 04:06:38;;;;;;;10.65;5.43;;;;;;;11.98;100.00;100632.84;6085622;19;20469;-73
2024/03/15 04:08:43;;;;;;;11.77;5.70;;;;;;;11.98;100.00;100644.25;6084979;19;22211;-74
2024/03/15 04:10:49;;;;;;;10.05;5.45;;;;;;;11.94;100.00;100637.41;6086257;19;20010;-77
2024/03/15 04:12:55;;;;;;;9.57;4.53;;;;;;;11.93;100.00;100645.38;6082364;19;20010;-76
2024/03/15 04:14:59;;;;;;;8.98;4.53;;;;;;;11.92;100.00;100644.53;6083282;19;20105;-76
2024/03/15 04:17:20;;;;;;;12.55;5.80;;;;;;;11.95;100.00;100651.44;6081952;19;20711;-75
2024/03/15 04:19:30;;;;;;;9.63;4.90;;;;;;;11.94;100.00;100647.97;6081972;19;20467;-73
2024/03/15 04:21:35;;;;;;;9.88;5.35;;;;;;;11.91;100.00;100644.63;6084076;19;20007;-73
2024/03/15 04:23:42;;;;;;;12.13;5.28;;;;;;;11.89;100.00;100649.97;6083070;19;20022;-73
2024/03/15 04:25:48;;;;;;;9.60;5.38;;;;;;;11.85;100.00;100651.88;6083396;19;20035;-73
2024/03/15 04:27:54;;;;;;;10.05;4.75;;;;;;;11.82;100.00;100652.03;6083019;19;20382;-73
2024/03/15 04:30:06;;;;;;;11.15;5.22;;;;;;;11.78;100.00;100649.59;6081856;19;20018;-77
2024/03/15 04:32:12;;;;;;;8.98;4.80;;;;;;;11.70;100.00;100655.25;6084221;19;20003;-74
2024/03/15 04:34:17;;;;;;;8.48;4.78;;;;;;;11.72;100.00;100658.66;6084515;19;20474;-77
2024/03/15 04:36:27;;;;;;;8.95;5.35;;;;;;;11.60;100.00;100656.59;6084653;19;20311;-77
2024/03/15 04:38:33;;;;;;;8.80;5.00;;;;;;;11.59;100.00;100658.38;6088743;19;20074;-78
2024/03/15 04:40:38;;;;;;;9.15;5.22;;;;;;;11.53;100.00;100669.22;6092629;19;20014;-75
2024/03/15 04:42:40;;;;;;;10.50;5.30;;;;;;;11.52;100.00;100661.38;6090273;19;20023;-76
2024/03/15 04:44:47;;;;;;;12.27;6.75;;;;;;;11.45;100.00;100663.44;6088665;19;20007;-75
2024/03/15 04:46:50;;;;;;;12.60;5.85;;;;;;;11.45;100.00;100670.47;6085893;19;20413;-74
2024/03/15 04:48:56;;;;;;;10.95;5.65;;;;;;;11.50;100.00;100665.84;6088693;19;20349;-76
2024/03/15 04:51:00;;;;;;;12.57;6.45;;;;;;;11.38;100.00;100670.78;6089737;19;20018;-76
2024/03/15 04:53:10;;;;;;;10.88;6.10;;;;;;;11.43;100.00;100673.19;6088060;19;20169;-77
2024/03/15 04:55:15;;;;;;;10.88;6.03;;;;;;;11.38;100.00;100670.78;6090070;19;20003;-77
2024/03/15 04:57:25;;;;;;;9.85;5.25;;;;;;;11.39;100.00;100667.22;6090312;19;20006;-76
2024/03/15 04:59:28;;;;;;;11.65;5.40;;;;;;;11.38;100.00;100678.66;6091158;19;20431;-76
2024/03/15 05:01:33;;;;;;;7.75;4.90;;;;;;;11.42;100.00;100666.22;6087471;19;20023;-74
2024/03/15 05:03:38;;;;;;;7.95;5.15;;;;;;;11.43;100.00;100667.94;6088305;19;20445;-74
2024/03/15 05:05:40;;;;;;;10.00;5.30;;;;;;;11.35;100.00;100665.66;6091577;19;20015;-74
2024/03/15 05:07:46;;;;;;;10.50;5.93;;;;;;;11.36;100.00;100672.63;6088556;19;20019;-74
2024/03/15 05:09:55;;;;;;;12.00;6.43;;;;;;;11.37;100.00;100681.34;6090453;19;20526;-76
2024/03/15 05:12:00;;;;;;;9.93;6.32;;;;;;;11.33;100.00;100667.50;6089598;19;20027;-77
2024/03/15 05:14:05;;;;;;;13.23;7.00;;;;;;;11.35;100.00;100670.94;6087555;19;20003;-76
2024/03/15 05:16:14;;;;;;;14.25;8.15;;;;;;;11.31;100.00;100674.59;6086190;19;20011;-77
2024/03/15 05:18:20;;;;;;;16.95;8.20;;;;;;;11.30;100.00;100672.91;6089310;19;20022;-76
2024/03/15 05:20:25;;;;;;;14.43;7.90;;;;;;;11.33;100.00;100674.56;6085872;19;20015;-76
2024/03/15 05:22:28;;;;;;;15.48;8.57;;;;;;;11.35;100.00;100673.56;6088322;19;20003;-76
2024/03/15 05:24:33;;;;;;;13.27;7.00;;;;;;;11.34;100.00;100681.50;6090843;19;20010;-75
2024/03/15 05:26:41;;;;;;;14.40;6.93;;;;;;;11.37;100.00;100674.34;6090291;19;20686;-75
2024/03/15 05:28:48;;;;;;;13.18;6.05;;;;;;;11.38;100.00;100676.03;6091496;19;20572;-75
2024/03/15 05:30:53;;;;;;;12.43;5.78;;;;;;;11.39;100.00;100671.63;6091499;19;20013;-77
2024/03/15 05:32:56;;;;;;;10.65;6.00;;;;;;;11.35;100.00;100676.19;6091114;19;20030;-76
2024/03/15 05:35:01;;;;;;;15.93;6.72;;;;;;;11.31;100.00;100660.59;6091716;19;20042;-77
2024/03/15 05:37:09;;;;;;;11.00;5.50;;;;;;;11.31;100.00;100665.88;6088502;19;20014;-76
2024/03/15 05:39:14;;;;;;;12.75;6.57;;;;;;;11.32;100.00;100665.81;6089582;19;20014;-74
2024/03/15 05:41:20;;;;;;;13.30;5.80;;;;;;;11.32;100.00;100663.19;6089184;19;20375;-76
2024/03/15 05:43:28;;;;;;;12.38;6.35;;;;;;;11.31;100.00;100661.44;6086106;19;20070;-73
2024/03/15 05:45:31;;;;;;;15.05;5.40;;;;;;;11.30;100.00;100662.38;6086460;19;20341;-73
2024/03/15 05:47:36;;;;;;;10.90;5.30;;;;;;;11.33;100.00;100664.03;6089734;19;20409;-74
2024/03/15 05:49:41;;;;;;;12.20;4.78;;;;;;;11.36;100.00;100656.00;6085509;19;20090;-74
2024/03/15 05:51:46;;;;;;;12.63;5.32;;;;;;;11.38;100.00;100662.88;6087189;19;20033;-77
2024/03/15 05:53:49;;;;;;;8.65;4.78;;;;;;;11.35;100.00;100652.50;6087759;19;20424;-73
2024/03/15 05:55:54;;;;;;;10.68;4.78;;;;;;;11.36;100.00;100654.19;6086793;19;20353;-73
2024/03/15 05:57:59;;;;;;;12.70;5.22;;;;;;;11.36;100.00;100656.00;6087842;19;20743;-73
2024/03/15 06:00:13;;;;;;;9.77;4.40;;;;;;;11.38;100.00;100654.16;6088766;19;20003;-73
2024/03/15 06:02:22;;;;;;;14.10;5.15;;;;;;;11.42;100.00;100653.06;6086532;19;20470;-74
2024/03/15 06:04:28;;;;;;;10.85;5.35;;;;;;;11.44;100.00;100656.47;6087747;19;20010;-73
2024/03/15 06:06:34;;;;;;;11.02;5.35;;;;;;;11.41;100.00;100652.22;6087748;19;20011;-74
2024/03/15 06:08:39;;;;;;;16.67;4.93;;;;;;;11.41;100.00;100652.22;6086594;19;20010;-73
2024/03/15 06:10:41;;;;;;;15.30;5.30;;;;;;;11.35;100.00;100670.94;6087952;19;20006;-73
2024/03/15 06:12:47;;;;;;;8.27;4.70;;;;;;;11.36;100.00;100656.84;6086234;19;20002;-73
2024/03/15 06:14:50;;;;;;;15.15;5.65;;;;;;;11.41;100.00;100662.75;6085994;19;20014;-73
2024/03/15 06:16:58;;;;;;;11.43;5.07;;;;;;;11.42;100.00;100660.94;6088065;19;20002;-73
2024/03/15 06:19:01;;;;;;;17.23;5.90;;;;;;;11.43;100.00;100662.69;6087839;19;20087;-73
2024/03/15 06:21:08;;;;;;;14.88;4.78;;;;;;;11.45;100.00;100666.06;6087243;19;20009;-73
2024/03/15 06:23:14;;;;;;;11.52;5.07;;;;;;;11.46;100.00;100651.16;6086695;19;20003;-72
2024/03/15 06:25:19;;;;;;;11.50;4.10;;;;;;;11.49;100.00;100657.13;6088340;19;20044;-73
2024/03/15 06:27:28;;;;;;;13.90;4.47;;;;;;;11.51;100.00;100652.63;6087993;19;20376;-72
2024/03/15 06:29:34;;;;;;;9.38;4.07;;;;;;;11.52;100.00;100656.13;6086921;19;20355;-73
2024/03/15 06:31:40;;;;;;;11.73;4.90;;;;;;;11.50;100.00;100664.06;6087544;19;20011;-72
2024/03/15 06:33:48;;;;;;;11.98;4.88;;;;;;;11.52;100.00;100666.66;6082132;19;20006;-72
2024/03/15 06:35:52;;;;;;;10.05;4.85;;;;;;;11.54;100.00;100660.38;6087759;19;20463;-73
2024/03/15 06:38:07;;;;;;;12.57;4.32;;;;;;;11.56;100.00;100657.69;6087016;19;20340;-72
2024/03/15 06:40:18;;;;;;;10.27;4.00;;;;;;;11.58;100.00;100663.72;6088043;19;20026;-72
2024/03/15 06:42:24;;;;;;;13.68;4.05;;;;;;;11.60;100.00;100669.75;6087793;19;20443;-73
2024/03/15 06:44:45;;;;;;;8.07;3.83;;;;;;;11.57;100.00;100668.13;6087125;19;20443;-73
2024/03/15 06:47:15;;;;;;;9.68;3.50;;;;;;;11.57;100.00;100668.13;6087583;19;20025;-74
2024/03/15 06:49:24;;;;;;;11.43;3.55;;;;;;;11.63;100.00;100669.63;6084974;19;20017;-73
2024/03/15 06:53:47;;;;;;;9.50;3.08;;;;;;;11.67;100.00;100675.59;6083695;19;20007;-73
2024/03/15 06:55:53;;;;;;;6.60;2.88;;;;;;;11.68;100.00;100682.56;6085328;19;20027;-72
2024/03/15 06:58:01;;;;;;;8.13;3.38;;;;;;;11.70;100.00;100671.03;6083300;19;20039;-72
2024/03/15 07:00:16;;;;;;;7.07;3.20;;;;;;;11.78;100.00;100687.31;6085642;19;20010;-74
2024/03/15 07:02:24;;;;;;;9.50;2.60;;;;;;;11.76;100.00;100685.69;6081413;19;20021;-73
2024/03/15 07:04:32;;;;;;;7.22;2.65;;;;;;;11.79;100.00;100673.22;6085960;19;20011;-71
2024/03/15 07:06:37;;;;;;;7.68;2.42;;;;;;;11.81;100.00;100684.53;6086776;19;20090;-73
2024/03/15 07:08:42;;;;;;;5.65;2.92;;;;;;;11.84;100.00;100681.75;6088133;19;20028;-74
2024/03/15 07:10:50;;;;;;;10.05;2.92;;;;;;;11.86;100.00;100694.88;6088359;19;20024;-74
2024/03/15 07:12:56;;;;;;;6.28;2.55;;;;;;;11.91;100.00;100686.75;6086455;19;20022;-75
2024/03/15 07:15:01;;;;;;;6.22;2.70;;;;;;;11.89;100.00;100691.25;6086719;19;20018;-73
2024/03/15 07:17:09;;;;;;;9.93;2.90;;;;;;;11.84;100.00;100694.91;6088720;19;20800;-73
2024/03/15 07:19:15;;;;;;;6.70;2.78;;;;;;;11.81;100.00;100694.22;6086935;19;20328;-73
2024/03/15 07:21:23;;;;;;;7.97;2.67;;;;;;;11.81;100.00;100700.31;6082376;19;20984;-73
2024/03/15 07:23:30;;;;;;;8.38;2.50;;;;;;;11.83;100.00;100692.38;6083866;19;20466;-74
2024/03/15 07:25:34;;;;;;;7.88;2.35;;;;;;;11.89;100.00;100694.72;6087998;19;20545;-73
2024/03/15 07:27:41;;;;;;;8.73;2.95;;;;;;;12.01;100.00;100693.28;6087893;19;20018;-73
2024/03/15 07:29:47;;;;;;;9.20;3.22;;;;;;;12.11;100.00;100689.25;6086381;19;20571;-74
2024/03/15 07:31:49;;;;;;;5.95;2.58;;;;;;;12.07;100.00;100693.84;6085377;19;20447;-74
2024/03/15 07:33:54;;;;;;;10.30;3.15;;;;;;;12.04;100.00;100690.50;6087399;19;20034;-73
2024/03/15 07:36:01;;;;;;;9.43;4.03;;;;;;;12.06;100.00;100684.25;6088776;19;20006;-73
2024/03/15 07:38:12;;;;;;;8.75;3.13;;;;;;;12.17;100.00;100688.97;6005933;19;2004546;-75
2024/03/15 07:40:18;;;;;;;10.60;2.88;;;;;;;12.24;100.00;100689.50;6087589;19;20007;-76
2024/03/15 07:42:23;;;;;;;9.00;3.33;;;;;;;12.18;100.00;100692.44;6089266;19;20474;-74
2024/03/15 07:44:29;;;;;;;8.50;3.08;;;;;;;12.18;100.00;100688.03;6087896;19;20435;-73
2024/03/15 07:46:37;;;;;;;12.40;3.47;;;;;;;12.15;100.00;100685.56;6088981;19;20471;-74
2024/03/15 07:48:43;;;;;;;9.32;2.45;;;;;;;12.17;100.00;100691.59;6086619;19;20010;-75
2024/03/15 07:50:48;;;;;;;9.15;2.90;;;;;;;12.17;100.00;100693.38;6087808;19;20375;-73
2024/03/15 07:52:53;;;;;;;11.05;4.05;;;;;;;12.15;100.00;100698.72;6083303;19;20042;-73
2024/03/15 07:55:03;;;;;;;11.55;3.42;;;;;;;12.14;100.00;100702.28;6086912;19;20002;-73
2024/03/15 07:57:13;;;;;;;11.45;3.17;;;;;;;12.10;100.00;100700.72;6086470;19;20006;-73
2024/03/15 07:59:22;;;;;;;9.15;3.55;;;;;;;12.08;100.00;100699.94;6087462;19;20035;-73
2024/03/15 08:01:24;;;;;;;8.80;3.60;;;;;;;12.16;100.00;100695.16;6086477;19;20006;-74
2024/03/15 08:03:32;;;;;;;10.50;3.25;;;;;;;12.14;100.00;100690.88;6083692;19;20019;-74
2024/03/15 08:05:38;;;;;;;13.48;4.10;;;;;;;12.25;100.00;100696.50;6084025;19;20029;-74
2024/03/15 08:07:41;;;;;;;10.02;4.10;;;;;;;12.26;100.00;100706.09;6084938;19;20017;-74
2024/03/15 08:09:46;;;;;;;;;;;;;;;12.30;100.00;100692.69;6089411;19;20637;-74
2024/03/15 08:11:54;;;;;;;9.02;3.72;;;;;;;12.38;100.00;100697.59;6084396;19;19927;-73
2024/03/15 08:13:59;;;;;;;6.50;3.47;;;;;;;12.39;100.00;100691.38;6088610;19;20013;-73
2024/03/15 08:16:18;;;;;;;9.88;3.97;;;;;;;12.49;100.00;100691.78;6090871;19;20010;-75
2024/03/15 08:18:24;;;;;;;7.15;3.47;;;;;;;12.43;100.00;100686.81;5988298;19;2004668;-75
2024/03/15 08:20:29;;;;;;;10.80;3.75;;;;;;;12.59;100.00;100684.25;6089390;19;20356;-74
2024/03/15 08:22:37;;;;;;;9.88;4.03;;;;;;;12.60;100.00;100683.31;6090402;19;20025;-74
2024/03/15 08:24:42;;;;;;;8.40;4.22;;;;;;;13.02;100.00;100690.75;6091598;19;20558;-75
2024/03/15 08:26:47;;;;;;;12.32;4.05;;;;;;;13.23;100.00;100683.50;6091414;19;20017;-75
2024/03/15 08:28:56;;;;;;;8.65;3.80;;;;;;;13.05;100.00;100693.22;6093389;19;20006;-76
2024/03/15 08:31:01;;;;;;;7.15;3.75;;;;;;;13.06;100.00;100700.22;6090710;19;20020;-75
2024/03/15 08:33:06;;;;;;;11.02;4.03;;;;;;;12.93;100.00;100671.00;6092257;19;20507;-75
2024/03/15 08:35:14;;;;;;;10.13;4.28;;;;;;;13.00;100.00;100699.69;6091939;19;20017;-75
2024/03/15 08:37:20;;;;;;;12.80;3.80;;;;;;;12.97;100.00;100698.06;6091745;19;20007;-75
2024/03/15 08:39:29;;;;;;;14.05;4.38;;;;;;;13.23;100.00;100693.19;6089799;19;20017;-76
2024/03/15 08:41:36;;;;;;;8.98;3.60;;;;;;;13.22;100.00;100702.03;6089834;19;20465;-73
2024/03/15 08:43:41;;;;;;;7.75;3.53;;;;;;;13.56;100.00;100701.06;6092273;19;20388;-74
2024/03/15 08:45:49;;;;;;;10.00;3.53;;;;;;;13.59;100.00;100706.22;6091493;19;20010;-75
2024/03/15 08:47:55;;;;;;;8.60;3.72;;;;;;;13.34;100.00;100706.69;6088114;19;20018;-76
2024/03/15 08:50:11;;;;;;;7.50;3.60;;;;;;;13.33;100.00;100702.34;6089956;19;20110;-75
2024/03/15 08:52:16;;;;;;;7.75;3.35;;;;;;;13.07;100.00;100717.75;6088909;19;20022;-75
2024/03/15 08:54:22;;;;;;;13.05;4.30;;;;;;;13.06;100.00;100723.09;6090113;19;20011;-74
2024/03/15 08:56:27;;;;;;;8.18;3.80;;;;;;;13.20;100.00;100709.19;6089291;19;20027;-75
2024/03/15 08:58:29;;;;;;;12.77;3.38;;;;;;;13.28;100.00;100722.88;6087934;19;20014;-75
2024/03/15 09:00:38;;;;;;;9.32;4.03;;;;;;;13.04;100.00;100730.25;6090589;19;20018;-76
2024/03/15 09:02:46;;;;;;;8.52;4.15;;;;;;;13.05;100.00;100735.44;6091858;19;20004;-75
2024/03/15 09:04:53;;;;;;;11.77;4.03;;;;;;;12.99;100.00;100733.13;6090182;19;20014;-75
2024/03/15 09:06:59;;;;;;;7.50;4.43;;;;;;;13.04;100.00;100725.84;6089107;19;20023;-76
2024/03/15 09:09:08;;;;;;;9.82;3.72;;;;;;;13.07;100.00;100724.81;6088915;19;20015;-75
2024/03/15 09:11:14;;;;;;;8.70;4.28;;;;;;;13.15;100.00;100710.28;6091454;19;20454;-74
2024/03/15 09:13:20;;;;;;;9.43;3.72;;;;;;;13.02;100.00;100721.56;6090310;19;20013;-74
2024/03/15 09:15:26;;;;;;;11.95;4.32;;;;;;;12.98;100.00;100720.88;6087107;19;20019;-74
2024/03/15 09:17:32;;;;;;;9.27;3.65;;;;;;;12.98;100.00;100720.88;6087593;19;20006;-74
2024/03/15 09:19:40;;;;;;;11.02;4.10;;;;;;;12.97;100.00;100721.81;6090915;19;20390;-74
2024/03/15 09:21:48;;;;;;;10.13;4.97;;;;;;;12.93;100.00;100715.00;6088534;19;20034;-76
2024/03/15 09:23:55;;;;;;;8.68;4.18;;;;;;;12.96;100.00;100725.38;6088292;19;20597;-75
2024/03/15 09:26:00;;;;;;;10.57;4.50;;;;;;;13.07;100.00;100714.28;6089916;19;20073;-73
2024/03/15 09:28:12;;;;;;;11.90;3.90;;;;;;;13.20;100.00;100717.97;6088393;19;20025;-76
2024/03/15 09:30:26;;;;;;;9.88;4.13;;;;;;;13.28;100.00;100712.31;6090868;19;20002;-73
2024/03/15 09:32:32;;;;;;;9.88;3.60;;;;;;;13.17;100.00;100716.34;6089656;19;20002;-75
2024/03/15 09:34:43;;;;;;;17.48;4.55;;;;;;;13.21;100.00;100701.19;6089406;19;20010;-74
2024/03/15 09:36:51;;;;;;;10.52;3.30;;;;;;;13.24;100.00;100722.13;6088232;19;20009;-73
2024/03/15 09:38:56;;;;;;;8.45;3.40;;;;;;;13.14;100.00;100713.03;6088819;19;20707;-75